Map

Track Data

SID SEASON NUMBER BASIN SUBBASIN NAME ISO_TIME NATURE LAT LON WMO_WIND WMO_PRES WMO_AGENCY TRACK_TYPE DIST2LAND LANDFALL IFLAG USA_AGENCY USA_ATCF_ID USA_LAT USA_LON USA_RECORD USA_STATUS USA_WIND USA_PRES USA_SSHS USA_R34_NE USA_R34_SE USA_R34_SW USA_R34_NW USA_R50_NE USA_R50_SE USA_R50_SW USA_R50_NW USA_R64_NE USA_R64_SE USA_R64_SW USA_R64_NW USA_POCI USA_ROCI USA_RMW USA_EYE TOKYO_LAT TOKYO_LON TOKYO_GRADE TOKYO_WIND TOKYO_PRES TOKYO_R50_DIR TOKYO_R50_LONG TOKYO_R50_SHORT TOKYO_R30_DIR TOKYO_R30_LONG TOKYO_R30_SHORT TOKYO_LAND CMA_LAT CMA_LON CMA_CAT CMA_WIND CMA_PRES HKO_LAT HKO_LON HKO_CAT HKO_WIND HKO_PRES NEWDELHI_LAT NEWDELHI_LON NEWDELHI_GRADE NEWDELHI_WIND NEWDELHI_PRES NEWDELHI_CI NEWDELHI_DP NEWDELHI_POCI REUNION_LAT REUNION_LON REUNION_TYPE REUNION_WIND REUNION_PRES REUNION_TNUM REUNION_CI REUNION_RMW REUNION_R34_NE REUNION_R34_SE REUNION_R34_SW REUNION_R34_NW REUNION_R50_NE REUNION_R50_SE REUNION_R50_SW REUNION_R50_NW REUNION_R64_NE REUNION_R64_SE REUNION_R64_SW REUNION_R64_NW BOM_LAT BOM_LON BOM_TYPE BOM_WIND BOM_PRES BOM_TNUM BOM_CI BOM_RMW BOM_R34_NE BOM_R34_SE BOM_R34_SW BOM_R34_NW BOM_R50_NE BOM_R50_SE BOM_R50_SW BOM_R50_NW BOM_R64_NE BOM_R64_SE BOM_R64_SW BOM_R64_NW BOM_ROCI BOM_POCI BOM_EYE BOM_POS_METHOD BOM_PRES_METHOD NADI_LAT NADI_LON NADI_CAT NADI_WIND NADI_PRES WELLINGTON_LAT WELLINGTON_LON WELLINGTON_WIND WELLINGTON_PRES DS824_LAT DS824_LON DS824_STAGE DS824_WIND DS824_PRES TD9636_LAT TD9636_LON TD9636_STAGE TD9636_WIND TD9636_PRES TD9635_LAT TD9635_LON TD9635_WIND TD9635_PRES TD9635_ROCI NEUMANN_LAT NEUMANN_LON NEUMANN_CLASS NEUMANN_WIND NEUMANN_PRES MLC_LAT MLC_LON MLC_CLASS MLC_WIND MLC_PRES USA_GUST BOM_GUST BOM_GUST_PER REUNION_GUST REUNION_GUST_PER USA_SEAHGT USA_SEARAD_NE USA_SEARAD_SE USA_SEARAD_SW USA_SEARAD_NW STORM_SPEED STORM_DIR
1976289N09086 1976 127 NI BB NOT_NAMED 1976-10-15 00:00:00 TS 9.30000 85.9000 main 489 473 O________OO___ jtwc_io IO091976 9.30000 85.9000 -1 9.30000 85.9000 TC 25 9.30000 85.9000 1 17 325
1976289N09086 1976 127 NI BB NOT_NAMED 1976-10-15 03:00:00 TS 10.0125 85.3960 main 473 456 P________PP___ IO091976 10.0427 85.3930 -1 10.0427 85.3930 TC 25 9.95220 85.4019 1 17 324
1976289N09086 1976 127 NI BB NOT_NAMED 1976-10-15 06:00:00 TS 10.6578 84.9040 main 462 450 O________OP___ jtwc_io IO091976 10.7000 84.9000 -1 10.7000 84.9000 TC 25 10.5733 84.9121 1 15 321
1976289N09086 1976 127 NI BB NOT_NAMED 1976-10-15 09:00:00 TS 11.1842 84.4369 main 447 425 P________PP___ IO091976 11.2099 84.4348 -1 11.2099 84.4348 TC 25 11.1327 84.4412 1 13 317
1976289N09086 1976 127 NI BB NOT_NAMED 1976-10-15 12:00:00 TS 11.6000 84.0000 main 425 375 O________OO___ jtwc_io IO091976 11.6000 84.0000 -1 11.6000 84.0000 TC 25 11.6000 84.0000 1 11 312
1976289N09086 1976 127 NI BB NOT_NAMED 1976-10-15 15:00:00 TS 11.9479 83.5840 main 375 327 P________PP___ IO091976 11.9450 83.5774 -1 11.9450 83.5774 TC 25 11.9537 83.5972 1 10 308
1976289N09086 1976 127 NI BB NOT_NAMED 1976-10-15 18:00:00 TS 12.2024 83.2106 main 327 293 O________OP___ jtwc_io IO091976 12.2000 83.2000 -1 12.2000 83.2000 TC 25 12.2071 83.2318 1 8 303
1976289N09086 1976 127 NI BB NOT_NAMED 1976-10-15 21:00:00 TS 12.3856 82.8901 main 293 260 P________PP___ IO091976 12.3874 82.8849 -1 12.3874 82.8849 TC 30 12.3819 82.9005 1 7 297
1976289N09086 1976 127 NI BB NOT_NAMED 1976-10-16 00:00:00 TS 12.5000 82.6000 main 260 228 O________OO___ jtwc_io IO091976 12.5000 82.6000 -1 12.5000 82.6000 TC 35 12.5000 82.6000 2 6 288
1976289N09086 1976 127 NI BB NOT_NAMED 1976-10-16 03:00:00 TS 12.5767 82.2888 main 228 195 P________PP___ IO091976 12.5650 82.2849 -1 12.5650 82.2849 TC 35 12.6002 82.2966 2 6 281
1976289N09086 1976 127 NI BB NOT_NAMED 1976-10-16 06:00:00 TS 12.6175 82.0082 main 195 173 O________OP___ jtwc_io IO091976 12.6000 82.0000 -1 12.6000 82.0000 TC 35 12.6524 82.0246 2 5 279
1976289N09086 1976 127 NI BB NOT_NAMED 1976-10-16 09:00:00 TS 12.6594 81.7768 main 173 151 P________PP___ IO091976 12.6500 81.7700 -1 12.6500 81.7700 TC 35 12.6784 81.7904 2 4 282
1976289N09086 1976 127 NI BB NOT_NAMED 1976-10-16 12:00:00 TS 12.7000 81.6000 main 151 141 O________OO___ jtwc_io IO091976 12.7000 81.6000 -1 12.7000 81.6000 TC 35 12.7000 81.6000 2 3 286
1976289N09086 1976 127 NI BB NOT_NAMED 1976-10-16 15:00:00 TS 12.7445 81.4742 main 141 130 P________PP___ IO091976 12.7500 81.4850 -1 12.7500 81.4850 TC 35 12.7336 81.4527 2 2 293
1976289N09086 1976 127 NI BB NOT_NAMED 1976-10-16 18:00:00 TS 12.7899 81.3825 main 130 119 O________OP___ jtwc_io IO091976 12.8000 81.4000 -1 12.8000 81.4000 TC 35 12.7698 81.3474 2 2 297
1976289N09086 1976 127 NI BB NOT_NAMED 1976-10-16 21:00:00 TS 12.8354 81.2894 main 119 107 P________PP___ IO091976 12.8425 81.3000 -1 12.8425 81.3000 TC 35 12.8212 81.2684 2 2 302
1976289N09086 1976 127 NI BB NOT_NAMED 1976-10-17 00:00:00 TS 12.9000 81.2000 main 107 92 O________OO___ jtwc_io IO091976 12.9000 81.2000 -1 12.9000 81.2000 TC 35 12.9000 81.2000 2 2 308
1976289N09086 1976 127 NI BB NOT_NAMED 1976-10-17 03:00:00 TS 12.9867 81.0915 main 92 79 P________PP___ IO091976 12.9775 81.0925 -1 12.9775 81.0925 TC 30 13.0050 81.0895 2 3 317
1976289N09086 1976 127 NI BB NOT_NAMED 1976-10-17 06:00:00 TS 13.1133 80.9967 main 79 64 O________OP___ jtwc_io IO091976 13.1000 81.0000 -1 13.1000 81.0000 TC 25 13.1400 80.9902 2 3 332
1976289N09086 1976 127 NI BB NOT_NAMED 1976-10-17 09:00:00 TS 13.2867 80.9253 main 64 64 P________PP___ IO091976 13.2775 80.9275 -1 13.2775 80.9275 TC 25 13.3050 80.9208 2 4 345
1976289N09086 1976 127 NI BB NOT_NAMED 1976-10-17 12:00:00 TS 13.5000 80.9000 main 64 64 O________OO___ jtwc_io IO091976 13.5000 80.9000 -1 13.5000 80.9000 TC 25 13.5000 80.9000 1 5 359
1976289N09086 1976 127 NI BB NOT_NAMED 1976-10-17 15:00:00 TS 13.7394 80.9191 main 64 64 P________PP___ IO091976 13.7425 80.9200 -1 13.7425 80.9200 TC 25 13.7333 80.9172 1 5 11
1976289N09086 1976 127 NI BB NOT_NAMED 1976-10-17 18:00:00 TS 13.9974 80.9958 main 78 78 O________OP___ jtwc_io IO091976 14.0000 81.0000 -1 14.0000 81.0000 TC 25 13.9923 80.9876 1 6 20
1976289N09086 1976 127 NI BB NOT_NAMED 1976-10-17 21:00:00 TS 14.2617 81.1180 main 102 102 P________PP___ IO091976 14.2650 81.1200 -1 14.2650 81.1200 TC 25 14.2551 81.1141 1 6 30
1976289N09086 1976 127 NI BB NOT_NAMED 1976-10-18 00:00:00 TS 14.5000 81.3000 main 118 118 O________OO___ jtwc_io IO091976 14.5000 81.3000 -1 14.5000 81.3000 TC 25 14.5000 81.3000 1 6 44
1976289N09086 1976 127 NI BB NOT_NAMED 1976-10-18 03:00:00 TS 14.6609 81.5103 main 129 129 P________PP___ IO091976 14.6575 81.5201 -1 14.6575 81.5201 TC 25 14.6676 81.4905 1 6 57
1976289N09086 1976 127 NI BB NOT_NAMED 1976-10-18 06:00:00 TS 14.8064 81.7813 main 139 139 O________OP___ jtwc_io IO091976 14.8000 81.8000 -1 14.8000 81.8000 TC 25 14.8191 81.7440 1 6 60
1976289N09086 1976 127 NI BB NOT_NAMED 1976-10-18 09:00:00 TS 14.9752 82.0853 main 147 144 P________PP___ IO091976 14.9697 82.0903 -1 14.9697 82.0903 TC 25 14.9861 82.0753 1 8 60
1976289N09086 1976 127 NI BB NOT_NAMED 1976-10-18 12:00:00 TS 15.2000 82.5000 main 148 144 O________OO___ jtwc_io IO091976 15.2000 82.5000 -1 15.2000 82.5000 TC 25 15.2000 82.5000 1 11 61
1976289N09086 1976 127 NI BB NOT_NAMED 1976-10-18 15:00:00 TS 15.5229 83.0999 main 149 147 P________PP___ IO091976 15.5277 83.1123 -1 15.5277 83.1123 TC 25 15.5132 83.0749 1 14 61
1976289N09086 1976 127 NI BB NOT_NAMED 1976-10-18 18:00:00 TS 15.8906 83.7777 main 178 178 O________OP___ jtwc_io IO091976 15.9000 83.8000 -1 15.9000 83.8000 TC 25 15.8719 83.7331 1 15 60
1976289N09086 1976 127 NI BB NOT_NAMED 1976-10-18 21:00:00 TS 16.2582 84.4300 main 193 193 P________PP___ IO091976 16.2650 84.4449 -1 16.2650 84.4449 TC 25 16.2445 84.4000 1 14 59
1976289N09086 1976 127 NI BB NOT_NAMED 1976-10-19 00:00:00 TS 16.6000 85.0000 main 212 204 O________OO___ jtwc_io IO091976 16.6000 85.0000 -1 16.6000 85.0000 TC 25 16.6000 85.0000 1 11 57
1976289N09086 1976 127 NI BB NOT_NAMED 1976-10-19 03:00:00 TS 16.8591 85.3968 main 208 207 P________PP___ IO091976 16.8572 85.3879 -1 16.8572 85.3879 TC 25 16.8628 85.4146 1 9 54
1976289N09086 1976 127 NI BB NOT_NAMED 1976-10-19 06:00:00 TS 17.1036 85.7183 main 215 215 O________OP___ jtwc_io IO091976 17.1000 85.7000 -1 17.1000 85.7000 TC 25 17.1109 85.7550 1 8 50
1976289N09086 1976 127 NI BB NOT_NAMED 1976-10-19 09:00:00 TS 17.3728 86.0462 main 215 215 P________PP___ IO091976 17.3699 86.0353 -1 17.3699 86.0353 TC 25 17.3786 86.0678 1 9 47
1976289N09086 1976 127 NI BB NOT_NAMED 1976-10-19 12:00:00 TS 17.7000 86.4000 main 226 214 O________OO___ jtwc_io IO091976 17.7000 86.4000 -1 17.7000 86.4000 TC 25 17.7000 86.4000 1 11 45
1976289N09086 1976 127 NI BB NOT_NAMED 1976-10-19 15:00:00 TS 18.1177 86.8238 main 214 182 P________PP___ IO091976 18.1200 86.8351 -1 18.1200 86.8351 TC 25 18.1131 86.8013 1 12 43
1976289N09086 1976 127 NI BB NOT_NAMED 1976-10-19 18:00:00 TS 18.5940 87.2777 main 182 168 O________OP___ jtwc_io IO091976 18.6000 87.3000 -1 18.6000 87.3000 TC 25 18.5820 87.2333 1 13 41
1976289N09086 1976 127 NI BB NOT_NAMED 1976-10-19 21:00:00 TS 19.0848 87.7182 main 169 168 P________PP___ IO091976 19.0847 87.7280 -1 19.0847 87.7280 TC 30 19.0848 87.6986 1 13 41
1976289N09086 1976 127 NI BB NOT_NAMED 1976-10-20 00:00:00 TS 19.6000 88.2000 main 175 169 O________OO___ jtwc_io IO091976 19.6000 88.2000 -1 19.6000 88.2000 TC 35 19.6000 88.2000 2 15 43
1976289N09086 1976 127 NI BB NOT_NAMED 1976-10-20 03:00:00 TS 20.1470 88.7774 main 168 105 P________PP___ IO091976 20.1576 88.7849 -1 20.1576 88.7849 TC 35 20.1257 88.7624 2 16 46
1976289N09086 1976 127 NI BB NOT_NAMED 1976-10-20 06:00:00 TS 20.6844 89.3853 main 105 67 O________OP___ jtwc_io IO091976 20.7000 89.4000 -1 20.7000 89.4000 TC 35 20.6532 89.3560 2 15 47
1976289N09086 1976 127 NI BB NOT_NAMED 1976-10-20 09:00:00 TS 21.1762 89.9641 main 67 30 P________PP___ IO091976 21.1874 89.9727 -1 21.1874 89.9727 TC 35 21.1539 89.9468 2 14 49
1976289N09086 1976 127 NI BB NOT_NAMED 1976-10-20 12:00:00 TS 21.6000 90.5000 main 38 24 O________OO___ jtwc_io IO091976 21.6000 90.5000 -1 21.6000 90.5000 TC 35 21.6000 90.5000 2 12 51
1976289N09086 1976 127 NI BB NOT_NAMED 1976-10-20 15:00:00 TS 21.9337 90.9747 main 38 30 P________PP___ IO091976 21.9223 90.9730 -1 21.9223 90.9730 TC 30 21.9566 90.9781 2 10 54
1976289N09086 1976 127 NI BB NOT_NAMED 1976-10-20 18:00:00 TS 22.2196 91.4041 main 41 0 O________OP___ jtwc_io IO091976 22.2000 91.4000 -1 22.2000 91.4000 TC 25 22.2589 91.4122 2 10 53
1976289N09086 1976 127 NI BB NOT_NAMED 1976-10-20 21:00:00 TS 22.5105 91.8102 main 0 0 P________PP___ IO091976 22.4998 91.8077 -1 22.4998 91.8077 TC 25 22.5318 91.8152 2 9 52
1976289N09086 1976 127 NI BB NOT_NAMED 1976-10-21 00:00:00 TS 22.8000 92.2000 main 0 0 O________OO___ jtwc_io IO091976 22.8000 92.2000 -1 22.8000 92.2000 TC 25 22.8000 92.2000 1 9 51
1976289N09086 1976 127 NI BB NOT_NAMED 1976-10-21 03:00:00 TS 23.0943 92.5978 main 0 0 P________PP___ IO091976 23.1000 92.6076 -1 23.1000 92.6076 TC 25 23.0831 92.5780 1 9 51
1976289N09086 1976 127 NI BB NOT_NAMED 1976-10-21 06:00:00 TS 23.3937 92.9843 main 0 0 O________OP___ jtwc_io IO091976 23.4000 93.0000 -1 23.4000 93.0000 TC 25 23.3810 92.9529 1 9 49
1976289N09086 1976 127 NI BB NOT_NAMED 1976-10-21 09:00:00 TS 23.6962 93.3486 main 0 0 P________PP___ IO091976 23.7001 93.3597 -1 23.7001 93.3597 TC 25 23.6884 93.3264 1 9 47
1976289N09086 1976 127 NI BB NOT_NAMED 1976-10-21 12:00:00 TS 24.0000 93.7000 main 0 O________OO___ jtwc_io IO091976 24.0000 93.7000 -1 24.0000 93.7000 TC 25 24.0000 93.7000 6 9 47

About IBTrACS Database

This database is a web-friendly format of International Best Track Archive for Climate Stewardship (IBTrACS), a global best track data archive curated by NOAA dating back to 1842.

Updated: 2021-11-26